Time;durP1;ratioP1;P1;durP2;ratioP2;P2;SDS_P1;SDS_P2;PMS_P1;PMS_P2;Temp;Humidity;BMP_temperature;BMP_pressure;BME280_temperature;BME280_humidity;BME280_pressure;Samples;Min_cycle;Max_cycle;Signal;HPM_P1;HPM_P2
2022/01/22 00:00:11;;;;;;;2.95;2.63;;;;;;;-145.13;100.00;63600.38;5116182;28;20192;-65
2022/01/22 00:02:39;;;;;;;3.10;2.40;;;;;;;-145.13;100.00;63600.38;5116891;28;20199;-65
2022/01/22 00:05:07;;;;;;;3.40;2.53;;;;;;;-145.13;100.00;63600.38;5117132;28;20207;-65
2022/01/22 00:07:35;;;;;;;3.17;2.88;;;;;;;-145.13;100.00;63600.38;5115783;28;20207;-64
2022/01/22 00:10:07;;;;;;;3.90;3.00;;;;;;;-145.13;100.00;63600.38;5116350;28;20216;-64
2022/01/22 00:12:56;;;;;;;4.68;3.28;;;;;;;-145.13;100.00;63600.38;5115778;28;20626;-64
2022/01/22 00:15:25;;;;;;;4.13;2.97;;;;;;;-145.13;100.00;63600.38;5116677;28;20184;-64
2022/01/22 00:17:52;;;;;;;3.72;2.80;;;;;;;-145.13;100.00;63600.38;5116641;28;20188;-64
2022/01/22 00:20:21;;;;;;;3.10;2.80;;;;;;;-145.13;100.00;63600.38;5116636;28;20184;-64
2022/01/22 00:22:50;;;;;;;3.15;2.70;;;;;;;-145.13;100.00;63600.38;5115612;28;20200;-64
2022/01/22 00:25:18;;;;;;;2.65;2.45;;;;;;;-145.13;100.00;63600.38;5115588;28;20244;-64
2022/01/22 00:27:47;;;;;;;3.58;2.85;;;;;;;-145.13;100.00;63600.38;5116411;28;20176;-64
2022/01/22 00:30:16;;;;;;;2.60;2.40;;;;;;;-145.13;100.00;63600.38;5116294;28;20213;-64
2022/01/22 00:32:43;;;;;;;2.90;2.33;;;;;;;-145.13;100.00;63600.38;5115087;28;20553;-65
2022/01/22 00:35:10;;;;;;;2.80;2.60;;;;;;;-145.13;100.00;63600.38;5116110;28;20201;-65
2022/01/22 00:37:39;;;;;;;2.85;2.33;;;;;;;-145.13;100.00;63600.38;5115778;28;20206;-65
2022/01/22 00:40:10;;;;;;;3.60;2.90;;;;;;;-145.13;100.00;63600.38;5116282;28;20176;-65
2022/01/22 00:42:37;;;;;;;2.85;2.55;;;;;;;-145.13;100.00;63600.38;5114957;28;20238;-65
2022/01/22 00:45:04;;;;;;;3.03;2.72;;;;;;;-145.13;100.00;63600.38;5115192;28;20199;-65
2022/01/22 00:47:31;;;;;;;2.70;2.50;;;;;;;-145.13;100.00;63600.38;5116159;28;20195;-65
2022/01/22 00:49:58;;;;;;;2.85;2.60;;;;;;;-145.13;100.00;63600.38;5115905;28;20210;-65
2022/01/22 00:52:25;;;;;;;2.78;2.58;;;;;;;-145.13;100.00;63600.38;5114939;28;20207;-65
2022/01/22 00:54:52;;;;;;;2.72;2.50;;;;;;;-145.13;100.00;63600.38;5114737;28;20202;-65
2022/01/22 00:57:20;;;;;;;3.35;2.78;;;;;;;-145.13;100.00;63600.38;5115622;28;20195;-65
2022/01/22 00:59:47;;;;;;;2.70;2.50;;;;;;;-145.13;100.00;63600.38;5115000;28;20200;-65
2022/01/22 01:02:13;;;;;;;2.75;2.55;;;;;;;-145.13;100.00;63600.38;5115926;28;20184;-65
2022/01/22 01:04:40;;;;;;;3.28;3.05;;;;;;;-145.13;100.00;63600.38;5116028;28;20187;-65
2022/01/22 01:07:07;;;;;;;3.25;2.95;;;;;;;-145.13;100.00;63600.38;5114786;28;20192;-65
2022/01/22 01:09:36;;;;;;;3.28;2.90;;;;;;;-145.13;100.00;63600.38;5115780;28;20207;-66
2022/01/22 01:12:07;;;;;;;4.07;3.20;;;;;;;-145.13;100.00;63600.38;5115859;28;20183;-66
2022/01/22 01:14:40;;;;;;;3.80;2.90;;;;;;;-145.13;100.00;63600.38;5115787;28;20262;-66
2022/01/22 01:17:23;;;;;;;3.95;3.03;;;;;;;-145.13;100.00;63600.38;5114831;28;20219;-65
2022/01/22 01:33:40;;;;;;;4.13;2.95;;;;;;;-145.13;100.00;63600.38;5115312;28;20263;-65
2022/01/22 01:36:07;;;;;;;4.05;3.00;;;;;;;-145.13;100.00;63600.38;5115617;28;20187;-65
2022/01/22 01:38:39;;;;;;;2.63;2.40;;;;;;;-145.13;100.00;63600.38;5115244;28;20194;-65
2022/01/22 01:41:16;;;;;;;4.43;2.90;;;;;;;-145.13;100.00;63600.38;5115498;28;20270;-65
2022/01/22 01:43:42;;;;;;;3.58;2.80;;;;;;;-145.13;100.00;63600.38;5114539;28;20195;-65
2022/01/22 01:46:11;;;;;;;3.30;3.00;;;;;;;-145.13;100.00;63600.38;5117506;28;20210;-65
2022/01/22 01:48:41;;;;;;;3.78;2.80;;;;;;;-145.13;100.00;63600.38;5119534;28;20262;-65
2022/01/22 01:51:08;;;;;;;3.92;2.70;;;;;;;-145.13;100.00;63600.38;5119391;28;20196;-65
2022/01/22 01:53:50;;;;;;;3.10;2.80;;;;;;;-145.13;100.00;63600.38;5119617;28;20204;-65
2022/01/22 01:59:06;;;;;;;2.85;2.60;;;;;;;-145.13;100.00;63600.38;5027163;28;20198;-65
2022/01/22 02:01:35;;;;;;;3.25;2.42;;;;;;;-145.13;100.00;63600.38;5118543;28;20190;-64
2022/01/22 02:04:01;;;;;;;2.80;2.50;;;;;;;-145.13;100.00;63600.38;5118295;28;20530;-65
2022/01/22 02:06:29;;;;;;;2.67;2.38;;;;;;;-145.13;100.00;63600.38;5118977;28;20198;-65
2022/01/22 02:08:56;;;;;;;2.90;2.50;;;;;;;-145.13;100.00;63600.38;5119145;28;20184;-65
2022/01/22 02:11:25;;;;;;;2.63;2.33;;;;;;;-145.13;100.00;63600.38;5118410;28;20231;-65
2022/01/22 02:14:01;;;;;;;3.20;2.60;;;;;;;-145.13;100.00;63600.38;5118099;28;20184;-65
2022/01/22 02:24:48;;;;;;;2.78;2.42;;;;;;;-145.13;100.00;63600.38;5117475;28;20295;-65
2022/01/22 02:27:15;;;;;;;3.25;2.40;;;;;;;-145.13;100.00;63600.38;5118101;28;20192;-65
2022/01/22 02:29:42;;;;;;;3.42;2.72;;;;;;;-145.13;100.00;63600.38;5118728;28;20199;-65
2022/01/22 02:32:40;;;;;;;3.50;2.50;;;;;;;-145.13;100.00;63600.38;5118629;28;20199;-64
2022/01/22 02:35:10;;;;;;;2.75;2.55;;;;;;;-145.13;100.00;63600.38;5118218;28;20256;-64
2022/01/22 02:37:44;;;;;;;2.97;2.58;;;;;;;-145.13;100.00;63600.38;5117860;28;20200;-64
2022/01/22 02:40:14;;;;;;;3.55;2.50;;;;;;;-145.13;100.00;63600.38;5118196;28;20180;-64
2022/01/22 02:42:44;;;;;;;2.80;2.53;;;;;;;-145.13;100.00;63600.38;5117041;28;20238;-64
2022/01/22 02:45:17;;;;;;;3.28;2.50;;;;;;;-145.13;100.00;63600.38;5118467;28;20187;-64
2022/01/22 02:47:44;;;;;;;3.83;2.83;;;;;;;-145.13;100.00;63600.38;5118410;28;20596;-65
2022/01/22 02:50:11;;;;;;;2.75;2.47;;;;;;;-145.13;100.00;63600.38;5118004;28;20230;-65
2022/01/22 02:52:39;;;;;;;2.55;2.35;;;;;;;-145.13;100.00;63600.38;5117332;28;20196;-65
2022/01/22 02:55:08;;;;;;;2.88;2.55;;;;;;;-145.13;100.00;63600.38;5118173;28;20203;-65
2022/01/22 02:57:35;;;;;;;3.30;2.67;;;;;;;-145.13;100.00;63600.38;5115892;28;20254;-65
2022/01/22 03:00:02;;;;;;;3.00;2.60;;;;;;;-145.13;100.00;63600.38;5117278;28;20191;-65
2022/01/22 03:02:29;;;;;;;2.90;2.42;;;;;;;-145.13;100.00;63600.38;5118121;28;20188;-65
2022/01/22 03:04:56;;;;;;;3.30;2.85;;;;;;;-145.13;100.00;63600.38;5116988;28;20218;-65
2022/01/22 03:07:24;;;;;;;2.67;2.40;;;;;;;-145.13;100.00;63600.38;5117130;28;20198;-66
2022/01/22 03:09:54;;;;;;;2.60;2.38;;;;;;;-145.13;100.00;63600.38;5117939;28;20195;-66
2022/01/22 03:12:47;;;;;;;3.10;2.58;;;;;;;-145.13;100.00;63600.38;5116956;28;20196;-66
2022/01/22 03:18:09;;;;;;;2.65;2.42;;;;;;;-145.13;100.00;63600.38;5117958;28;20196;-66
2022/01/22 03:20:45;;;;;;;2.70;2.50;;;;;;;-145.13;100.00;63600.38;5116422;28;20203;-65
2022/01/22 03:27:19;;;;;;;3.25;2.50;;;;;;;-145.13;100.00;63600.38;5117418;28;20286;-65
2022/01/22 03:28:53;;;;;;;3.40;2.50;;;;;;;-145.13;100.00;63600.38;5061568;28;20206;-66
2022/01/22 03:31:20;;;;;;;2.97;2.65;;;;;;;-145.13;100.00;63600.38;5116762;28;20314;-66
2022/01/22 03:33:47;;;;;;;3.00;2.70;;;;;;;-145.13;100.00;63600.38;5117062;28;20234;-66
2022/01/22 03:36:14;;;;;;;2.65;2.40;;;;;;;-145.13;100.00;63600.38;5117750;28;20203;-66
2022/01/22 03:38:41;;;;;;;2.67;2.47;;;;;;;-145.13;100.00;63600.38;5117453;28;20203;-65
2022/01/22 03:41:10;;;;;;;3.13;2.78;;;;;;;-145.13;100.00;63600.38;5116441;28;20573;-65
2022/01/22 03:43:38;;;;;;;4.07;3.05;;;;;;;-145.13;100.00;63600.38;5115962;28;20235;-65
2022/01/22 03:46:05;;;;;;;3.42;2.80;;;;;;;-145.13;100.00;63600.38;5116972;28;20226;-65
2022/01/22 03:48:32;;;;;;;3.40;2.80;;;;;;;-145.13;100.00;63600.38;5115995;28;20207;-66
2022/01/22 03:50:59;;;;;;;4.18;3.05;;;;;;;-145.13;100.00;63600.38;5116932;28;20210;-66
2022/01/22 03:53:26;;;;;;;3.67;3.28;;;;;;;-145.13;100.00;63600.38;5117150;28;20211;-66
2022/01/22 03:56:02;;;;;;;3.63;2.63;;;;;;;-145.13;100.00;63600.38;5117124;28;20184;-66
2022/01/22 03:58:31;;;;;;;3.45;3.10;;;;;;;-145.13;100.00;63600.38;5116979;28;20187;-66
2022/01/22 04:01:21;;;;;;;3.78;3.05;;;;;;;-145.13;100.00;63600.38;5117033;28;20176;-66
2022/01/22 04:03:56;;;;;;;3.38;2.70;;;;;;;-145.13;100.00;63600.38;5116014;28;20231;-66
2022/01/22 04:09:09;;;;;;;3.42;2.55;;;;;;;-145.13;100.00;63600.38;5102073;28;20207;-66
2022/01/22 04:11:40;;;;;;;3.97;2.40;;;;;;;-145.13;100.00;63600.38;5116724;28;20219;-66
2022/01/22 04:14:15;;;;;;;3.60;2.50;;;;;;;-145.13;100.00;63600.38;5117007;28;20184;-65
2022/01/22 04:16:55;;;;;;;2.58;2.38;;;;;;;-145.13;100.00;63600.38;5115413;28;20195;-65
2022/01/22 04:24:54;;;;;;;2.88;2.55;;;;;;;-145.13;100.00;63600.38;5081502;28;20199;-65
2022/01/22 04:27:24;;;;;;;9.52;8.57;;;;;;;-145.13;100.00;63600.38;5115760;28;20203;-65
2022/01/22 04:29:54;;;;;;;7.85;7.05;;;;;;;-145.13;100.00;63600.38;5116517;28;20184;-65
2022/01/22 04:32:21;;;;;;;4.47;3.85;;;;;;;-145.13;100.00;63600.38;5115948;28;20211;-66
2022/01/22 04:34:48;;;;;;;5.15;4.65;;;;;;;-145.13;100.00;63600.38;5115303;28;20211;-66
2022/01/22 04:37:17;;;;;;;3.78;3.25;;;;;;;-145.13;100.00;63600.38;5115597;28;20221;-66
2022/01/22 04:39:45;;;;;;;4.18;3.35;;;;;;;-145.13;100.00;63600.38;5117181;28;20180;-66
2022/01/22 04:42:12;;;;;;;3.78;2.78;;;;;;;-145.13;100.00;63600.38;5115133;28;20234;-66
2022/01/22 04:44:47;;;;;;;3.40;3.08;;;;;;;-145.13;100.00;63600.38;5116104;28;20296;-66
2022/01/22 04:47:26;;;;;;;4.15;3.75;;;;;;;-145.13;100.00;63600.38;5115852;28;20611;-66
2022/01/22 04:52:42;;;;;;;4.35;3.15;;;;;;;-145.13;100.00;63600.38;5114652;28;20211;-66
2022/01/22 04:55:09;;;;;;;3.50;3.20;;;;;;;-145.13;100.00;63600.38;5114818;28;20255;-66
2022/01/22 04:57:37;;;;;;;3.47;3.17;;;;;;;-145.13;100.00;63600.38;5116050;28;20263;-66
2022/01/22 05:00:07;;;;;;;3.65;2.75;;;;;;;-145.13;100.00;63600.38;5115021;28;20197;-66
2022/01/22 05:02:35;;;;;;;4.95;3.17;;;;;;;-145.13;100.00;63600.38;5114761;28;20205;-65
2022/01/22 05:05:02;;;;;;;3.20;2.90;;;;;;;-145.13;100.00;63600.38;5115012;28;20203;-66
2022/01/22 05:07:29;;;;;;;3.83;2.80;;;;;;;-145.13;100.00;63600.38;5115841;28;20175;-64
2022/01/22 05:09:56;;;;;;;3.65;3.03;;;;;;;-145.13;100.00;63600.38;5115838;28;20195;-64
2022/01/22 05:12:23;;;;;;;4.25;3.30;;;;;;;-145.13;100.00;63600.38;5115016;28;20229;-66
2022/01/22 05:14:50;;;;;;;3.90;2.78;;;;;;;-145.13;100.00;63600.38;5115451;28;20511;-66
2022/01/22 05:17:18;;;;;;;3.58;3.17;;;;;;;-145.13;100.00;63600.38;5114511;28;20737;-65
2022/01/22 05:19:49;;;;;;;5.18;3.10;;;;;;;-145.13;100.00;63600.38;5114324;28;20199;-65
2022/01/22 05:22:28;;;;;;;3.80;2.97;;;;;;;-145.13;100.00;63600.38;5115244;28;20187;-65
2022/01/22 05:24:59;;;;;;;3.58;3.28;;;;;;;-145.13;100.00;63600.38;5114712;28;20192;-66
2022/01/22 05:30:15;;;;;;;3.80;3.00;;;;;;;-145.13;100.00;63600.38;5111727;28;20204;-66
2022/01/22 05:32:58;;;;;;;3.67;3.38;;;;;;;-145.13;100.00;63600.38;5115395;28;20203;-66
2022/01/22 05:38:10;;;;;;;4.25;2.80;;;;;;;-145.13;100.00;63600.38;5114797;28;20192;-65
2022/01/22 05:40:37;;;;;;;3.40;3.10;;;;;;;-145.13;100.00;63600.38;5115098;28;20194;-65
2022/01/22 05:43:04;;;;;;;2.58;2.38;;;;;;;-145.13;100.00;63600.38;5115113;28;20235;-65
2022/01/22 05:45:31;;;;;;;2.95;2.60;;;;;;;-145.13;100.00;63600.38;5115343;28;20492;-65
2022/01/22 05:47:58;;;;;;;2.90;2.58;;;;;;;-145.13;100.00;63600.38;5115507;28;20184;-65
2022/01/22 05:50:31;;;;;;;3.10;2.80;;;;;;;-145.13;100.00;63600.38;5114244;28;20627;-65
2022/01/22 05:53:01;;;;;;;2.97;2.47;;;;;;;-145.13;100.00;63600.38;5115282;28;20219;-65
2022/01/22 05:59:35;;;;;;;3.53;2.72;;;;;;;-145.13;100.00;63600.38;5115384;28;20242;-64
2022/01/22 06:01:13;;;;;;;3.10;2.80;;;;;;;-145.13;100.00;63600.38;5115361;28;20206;-66
2022/01/22 06:03:40;;;;;;;4.72;3.30;;;;;;;-145.13;100.00;63600.38;5114222;28;20218;-64
2022/01/22 06:06:09;;;;;;;3.17;2.85;;;;;;;-145.13;100.00;63600.38;5114315;28;20206;-64
2022/01/22 06:08:46;;;;;;;3.75;3.00;;;;;;;-145.13;100.00;63600.38;5115396;28;20191;-65
2022/01/22 06:11:21;;;;;;;3.08;2.80;;;;;;;-145.13;100.00;63600.38;5115177;28;20199;-65
2022/01/22 06:13:48;;;;;;;2.97;2.60;;;;;;;-145.13;100.00;63600.38;5114267;28;20239;-65
2022/01/22 06:16:17;;;;;;;3.97;2.92;;;;;;;-145.13;100.00;63600.38;5114336;28;20200;-65
2022/01/22 06:18:44;;;;;;;3.83;2.55;;;;;;;-145.13;100.00;63600.38;5114743;28;20529;-65
2022/01/22 06:21:13;;;;;;;2.47;2.28;;;;;;;-145.13;100.00;63600.38;5115317;28;20180;-65
2022/01/22 06:23:40;;;;;;;2.70;2.42;;;;;;;-145.13;100.00;63600.38;5115126;28;20184;-65
2022/01/22 06:26:08;;;;;;;2.58;2.33;;;;;;;-145.13;100.00;63600.38;5114861;28;20180;-65
2022/01/22 06:28:36;;;;;;;2.90;2.40;;;;;;;-145.13;100.00;63600.38;5115032;28;20196;-65
2022/01/22 06:31:03;;;;;;;2.50;2.30;;;;;;;-145.13;100.00;63600.38;5114643;28;20192;-65
2022/01/22 06:33:30;;;;;;;3.03;2.60;;;;;;;-145.13;100.00;63600.38;5117940;28;20194;-65
2022/01/22 06:35:57;;;;;;;2.50;2.30;;;;;;;-145.13;100.00;63600.38;5118304;28;20180;-65
2022/01/22 06:38:27;;;;;;;3.20;2.90;;;;;;;-145.13;100.00;63600.38;5117600;28;20206;-65
2022/01/22 06:43:38;;;;;;;3.10;2.80;;;;;;;-145.13;100.00;63600.38;5117711;28;20302;-65
2022/01/22 06:46:05;;;;;;;2.88;2.67;;;;;;;-145.13;100.00;63600.38;5117174;28;20631;-65
2022/01/22 06:48:31;;;;;;;4.25;3.47;;;;;;;-145.13;100.00;63600.38;5118158;28;20266;-65
2022/01/22 06:50:59;;;;;;;3.63;3.33;;;;;;;-145.13;100.00;63600.38;5117363;28;20197;-64
2022/01/22 06:53:27;;;;;;;3.40;3.10;;;;;;;-145.13;100.00;63600.38;5118064;28;20190;-64
2022/01/22 06:55:57;;;;;;;2.65;2.45;;;;;;;-145.13;100.00;63600.38;5117532;28;20204;-64
2022/01/22 06:58:24;;;;;;;2.45;2.25;;;;;;;-145.13;100.00;63600.38;5118374;28;20184;-64
2022/01/22 07:00:51;;;;;;;2.40;2.20;;;;;;;-145.13;100.00;63600.38;5118204;28;20180;-64
2022/01/22 07:03:18;;;;;;;2.42;2.08;;;;;;;-145.13;100.00;63600.38;5118034;28;20650;-64
2022/01/22 07:05:45;;;;;;;2.50;2.30;;;;;;;-145.13;100.00;63600.38;5118244;28;20188;-64
2022/01/22 07:08:12;;;;;;;2.78;2.58;;;;;;;-145.13;100.00;63600.38;5118329;28;20184;-67
2022/01/22 07:10:40;;;;;;;3.15;2.60;;;;;;;-145.13;100.00;63600.38;5117541;28;20195;-66
2022/01/22 07:13:07;;;;;;;3.10;2.80;;;;;;;-145.13;100.00;63600.38;5117927;28;20436;-65
2022/01/22 07:15:34;;;;;;;3.10;2.80;;;;;;;-145.13;100.00;63600.38;5118079;28;20194;-65
2022/01/22 07:18:01;;;;;;;3.47;3.03;;;;;;;-145.13;100.00;63600.38;5117672;28;20533;-65
2022/01/22 07:20:29;;;;;;;3.00;2.75;;;;;;;-145.13;100.00;63600.38;5117878;27;20183;-65
2022/01/22 07:23:02;;;;;;;2.90;2.70;;;;;;;-145.13;100.00;63600.38;5118231;28;20188;-65
2022/01/22 07:25:30;;;;;;;3.50;3.20;;;;;;;-145.13;100.00;63600.38;5116906;28;20188;-65
2022/01/22 07:27:58;;;;;;;4.32;3.08;;;;;;;-145.13;100.00;63600.38;5117914;28;20191;-65
2022/01/22 07:30:25;;;;;;;3.42;3.13;;;;;;;-145.13;100.00;63600.38;5116713;28;20607;-65
2022/01/22 07:32:52;;;;;;;3.17;2.88;;;;;;;-145.13;100.00;63600.38;5116472;28;20310;-65
2022/01/22 07:35:19;;;;;;;4.63;3.10;;;;;;;-145.13;100.00;63600.38;5117212;28;20627;-65
2022/01/22 07:37:46;;;;;;;2.63;2.42;;;;;;;-145.13;100.00;63600.38;5116980;28;20192;-65
2022/01/22 07:40:13;;;;;;;3.13;2.70;;;;;;;-145.13;100.00;63600.38;5116239;28;20203;-65
2022/01/22 07:42:40;;;;;;;3.10;2.60;;;;;;;-145.13;100.00;63600.38;5117332;28;20227;-65
2022/01/22 07:45:10;;;;;;;3.17;2.80;;;;;;;-145.13;100.00;63600.38;5116922;28;20208;-65
2022/01/22 07:47:37;;;;;;;4.20;2.92;;;;;;;-145.13;100.00;63600.38;5116562;28;20188;-65
2022/01/22 07:50:06;;;;;;;2.97;2.75;;;;;;;-145.13;100.00;63600.38;5116615;28;20544;-66
2022/01/22 07:52:33;;;;;;;3.15;2.85;;;;;;;-145.13;100.00;63600.38;5117207;28;20215;-67
2022/01/22 07:54:59;;;;;;;4.50;4.10;;;;;;;-145.13;100.00;63600.38;5116619;28;20192;-66
2022/01/22 07:57:26;;;;;;;4.05;3.33;;;;;;;-145.13;100.00;63600.38;5117451;28;20188;-65
2022/01/22 07:59:53;;;;;;;3.53;3.10;;;;;;;-145.13;100.00;63600.38;5117377;28;20187;-66
2022/01/22 08:02:21;;;;;;;3.60;3.13;;;;;;;-145.13;100.00;63600.38;5116500;28;20206;-66
2022/01/22 08:04:48;;;;;;;3.17;2.88;;;;;;;-145.13;100.00;63600.38;5116069;28;20210;-66
2022/01/22 08:07:15;;;;;;;4.43;3.58;;;;;;;-145.13;100.00;63600.38;5115998;28;20207;-65
2022/01/22 08:09:42;;;;;;;4.23;3.83;;;;;;;-145.13;100.00;63600.38;5116027;28;20428;-67
2022/01/22 08:12:09;;;;;;;3.58;3.28;;;;;;;-145.13;100.00;63600.38;5116919;28;20222;-68
2022/01/22 08:14:36;;;;;;;4.25;3.85;;;;;;;-145.13;100.00;63600.38;5116848;28;20202;-68
2022/01/22 08:17:04;;;;;;;3.50;3.20;;;;;;;-145.13;100.00;63600.38;5115637;28;20682;-67
2022/01/22 08:19:32;;;;;;;3.03;2.78;;;;;;;-145.13;100.00;63600.38;5115715;28;20184;-68
2022/01/22 08:21:58;;;;;;;3.20;3.00;;;;;;;-145.13;100.00;63600.38;5115366;28;20199;-68
2022/01/22 08:24:26;;;;;;;3.15;2.90;;;;;;;-145.13;100.00;63600.38;5116298;28;20184;-68
2022/01/22 08:27:08;;;;;;;4.00;3.70;;;;;;;-145.13;100.00;63600.38;5116364;28;20274;-68
2022/01/22 08:29:35;;;;;;;3.60;3.30;;;;;;;-145.13;100.00;63600.38;5115468;28;20623;-68
2022/01/22 08:32:10;;;;;;;4.18;3.75;;;;;;;-145.13;100.00;63600.38;5116055;28;20204;-68
2022/01/22 08:37:23;;;;;;;5.43;4.93;;;;;;;-145.13;100.00;63600.38;5115779;28;20192;-68
2022/01/22 08:39:50;;;;;;;3.28;3.05;;;;;;;-145.13;100.00;63600.38;5115732;28;20215;-68
2022/01/22 08:42:17;;;;;;;4.43;4.03;;;;;;;-145.13;100.00;63600.38;5115411;28;20224;-66
2022/01/22 08:44:44;;;;;;;3.15;2.95;;;;;;;-145.13;100.00;63600.38;5116173;28;20180;-66
2022/01/22 08:47:10;;;;;;;3.28;2.97;;;;;;;-145.13;100.00;63600.38;5116205;28;20607;-66
2022/01/22 08:49:39;;;;;;;2.92;2.60;;;;;;;-145.13;100.00;63600.38;5116176;28;20180;-66
2022/01/22 08:52:11;;;;;;;3.78;3.47;;;;;;;-145.13;100.00;63600.38;5115382;28;20230;-66
2022/01/22 08:54:38;;;;;;;3.05;2.75;;;;;;;-145.13;100.00;63600.38;5115936;28;20195;-65
2022/01/22 08:57:05;;;;;;;3.50;3.20;;;;;;;-145.13;100.00;63600.38;5114763;28;20206;-65
2022/01/22 08:59:32;;;;;;;4.85;4.45;;;;;;;-145.13;100.00;63600.38;5115948;28;20183;-65
2022/01/22 09:01:59;;;;;;;3.50;3.20;;;;;;;-145.13;100.00;63600.38;5114948;28;20222;-66
2022/01/22 09:04:26;;;;;;;4.55;4.15;;;;;;;-145.13;100.00;63600.38;5116078;28;20199;-66
2022/01/22 09:06:54;;;;;;;3.50;3.20;;;;;;;-145.13;100.00;63600.38;5114943;28;20203;-66
2022/01/22 09:09:21;;;;;;;3.65;3.35;;;;;;;-145.13;100.00;63600.38;5115410;28;20554;-66
2022/01/22 09:11:48;;;;;;;3.97;2.92;;;;;;;-145.13;100.00;63600.38;5115900;28;20194;-66
2022/01/22 09:14:16;;;;;;;4.70;4.30;;;;;;;-145.13;100.00;63600.38;5115824;28;20180;-66
2022/01/22 09:16:43;;;;;;;4.07;3.78;;;;;;;-145.13;100.00;63600.38;5114680;28;20219;-66
2022/01/22 09:19:12;;;;;;;3.65;3.35;;;;;;;-145.13;100.00;63600.38;5115381;28;20195;-66
2022/01/22 09:21:41;;;;;;;3.80;3.42;;;;;;;-145.13;100.00;63600.38;5115690;28;20274;-66
2022/01/22 09:24:10;;;;;;;3.50;3.20;;;;;;;-145.13;100.00;63600.38;5114405;28;20188;-67
2022/01/22 09:26:37;;;;;;;3.95;3.65;;;;;;;-145.13;100.00;63600.38;5115563;28;20184;-66
2022/01/22 09:29:05;;;;;;;3.25;2.95;;;;;;;-145.13;100.00;63600.38;5114353;28;20630;-67
2022/01/22 09:31:32;;;;;;;4.15;3.55;;;;;;;-145.13;100.00;63600.38;5115257;28;20187;-66
2022/01/22 09:34:00;;;;;;;3.55;3.08;;;;;;;-145.13;100.00;63600.38;5115527;28;20195;-68
2022/01/22 09:36:29;;;;;;;3.67;3.30;;;;;;;-145.13;100.00;63600.38;5115545;28;20257;-65
2022/01/22 09:38:56;;;;;;;3.75;3.45;;;;;;;-145.13;100.00;63600.38;5114602;28;20624;-66
2022/01/22 09:41:26;;;;;;;3.22;2.72;;;;;;;-145.13;100.00;63600.38;5115317;28;20184;-65
2022/01/22 09:43:54;;;;;;;3.90;3.45;;;;;;;-145.13;100.00;63600.38;5114982;28;20282;-66
2022/01/22 09:46:21;;;;;;;4.20;3.80;;;;;;;-145.13;100.00;63600.38;5114698;28;20191;-65
2022/01/22 09:48:50;;;;;;;4.20;3.80;;;;;;;-145.13;100.00;63600.38;5115377;28;20184;-65
2022/01/22 09:51:17;;;;;;;4.00;3.60;;;;;;;-145.13;100.00;63600.38;5115308;28;20194;-65
2022/01/22 09:53:44;;;;;;;3.30;2.83;;;;;;;-145.13;100.00;63600.38;5114388;28;20225;-65
2022/01/22 09:56:11;;;;;;;3.30;3.00;;;;;;;-145.13;100.00;63600.38;5114412;28;20192;-66
2022/01/22 09:58:40;;;;;;;3.10;2.80;;;;;;;-145.13;100.00;63600.38;5114537;28;20203;-65
2022/01/22 10:01:22;;;;;;;2.80;2.60;;;;;;;-145.13;100.00;63600.38;5115363;28;20191;-66
2022/01/22 10:03:50;;;;;;;2.80;2.60;;;;;;;-145.13;100.00;63600.38;5115362;28;20196;-65
2022/01/22 10:06:19;;;;;;;3.00;2.65;;;;;;;-145.13;100.00;63600.38;5115535;28;20215;-65
2022/01/22 10:08:46;;;;;;;2.90;2.70;;;;;;;-145.13;100.00;63600.38;5119232;28;20195;-65
2022/01/22 10:11:17;;;;;;;3.78;2.80;;;;;;;-145.13;100.00;63600.38;5118267;28;20192;-65
2022/01/22 10:13:47;;;;;;;3.00;2.80;;;;;;;-145.13;100.00;63600.38;5119055;28;20203;-65
2022/01/22 10:16:20;;;;;;;2.63;2.42;;;;;;;-145.13;100.00;63600.38;5118910;28;20180;-66
2022/01/22 10:18:47;;;;;;;2.80;2.60;;;;;;;-145.13;100.00;63600.38;5117655;28;20199;-65
2022/01/22 10:21:16;;;;;;;3.22;3.03;;;;;;;-145.13;100.00;63600.38;5118860;28;20190;-66
2022/01/22 10:23:43;;;;;;;3.40;3.10;;;;;;;-145.13;100.00;63600.38;5118472;28;20290;-65
2022/01/22 10:26:13;;;;;;;3.67;3.35;;;;;;;-145.13;100.00;63600.38;5118222;28;20195;-65
2022/01/22 10:28:44;;;;;;;3.90;3.50;;;;;;;-145.13;100.00;63600.38;5117610;28;20184;-66
2022/01/22 10:31:20;;;;;;;3.65;3.35;;;;;;;-145.13;100.00;63600.38;5119192;28;20199;-66
2022/01/22 10:34:08;;;;;;;5.25;4.60;;;;;;;-145.13;100.00;63600.38;5118021;28;20207;-66
2022/01/22 10:36:35;;;;;;;3.65;3.35;;;;;;;-145.13;100.00;63600.38;5118771;28;20203;-66
2022/01/22 10:39:02;;;;;;;3.15;2.90;;;;;;;-145.13;100.00;63600.38;5118597;28;20614;-66
2022/01/22 10:41:34;;;;;;;3.20;2.92;;;;;;;-145.13;100.00;63600.38;5118736;28;20195;-66
2022/01/22 10:44:02;;;;;;;3.08;2.63;;;;;;;-145.13;100.00;63600.38;5117693;28;20248;-66
2022/01/22 10:46:44;;;;;;;2.95;2.75;;;;;;;-145.13;100.00;63600.38;5118027;28;20254;-66
2022/01/22 10:49:13;;;;;;;3.40;3.10;;;;;;;-145.13;100.00;63600.38;5118081;28;20434;-67
2022/01/22 10:51:48;;;;;;;2.75;2.55;;;;;;;-145.13;100.00;63600.38;5118371;28;20184;-67
2022/01/22 10:54:16;;;;;;;3.00;2.80;;;;;;;-145.13;100.00;63600.38;5118502;28;20203;-67
2022/01/22 10:56:43;;;;;;;2.90;2.70;;;;;;;-145.13;100.00;63600.38;5117629;28;20204;-67
2022/01/22 10:59:11;;;;;;;3.38;3.08;;;;;;;-145.13;100.00;63600.38;5118287;28;20198;-67
2022/01/22 11:01:54;;;;;;;2.90;2.70;;;;;;;-145.13;100.00;63600.38;5117511;28;20265;-67
2022/01/22 11:04:23;;;;;;;3.20;2.90;;;;;;;-145.13;100.00;63600.38;5118139;28;20561;-67
2022/01/22 11:06:52;;;;;;;3.05;2.67;;;;;;;-145.13;100.00;63600.38;5117024;28;20207;-67
2022/01/22 11:09:20;;;;;;;2.75;2.47;;;;;;;-145.13;100.00;63600.38;5117470;28;20188;-67
2022/01/22 11:11:48;;;;;;;3.08;2.78;;;;;;;-145.13;100.00;63600.38;5117447;28;20200;-67
2022/01/22 11:14:16;;;;;;;3.00;2.80;;;;;;;-145.13;100.00;63600.38;5117949;28;20211;-67
2022/01/22 11:16:45;;;;;;;3.10;2.80;;;;;;;-145.13;100.00;63600.38;5117918;28;20176;-67
2022/01/22 11:19:17;;;;;;;3.63;3.33;;;;;;;-145.13;100.00;63600.38;5116739;28;20183;-67
2022/01/22 11:21:47;;;;;;;4.00;3.60;;;;;;;-145.13;100.00;63600.38;5117356;28;20199;-67
2022/01/22 11:24:16;;;;;;;3.40;3.10;;;;;;;-145.13;100.00;63600.38;5117248;28;20226;-67
2022/01/22 11:26:45;;;;;;;3.33;3.00;;;;;;;-145.13;100.00;63600.38;5116723;28;20200;-67
2022/01/22 11:29:14;;;;;;;4.30;3.90;;;;;;;-145.13;100.00;63600.38;5117680;28;20237;-67
2022/01/22 11:31:42;;;;;;;3.97;3.58;;;;;;;-145.13;100.00;63600.38;5116928;28;20206;-67
2022/01/22 11:34:09;;;;;;;5.53;4.43;;;;;;;-145.13;100.00;63600.38;5117295;28;20225;-67
2022/01/22 11:36:43;;;;;;;3.13;2.90;;;;;;;-145.13;100.00;63600.38;5117165;28;20274;-67
2022/01/22 11:39:19;;;;;;;3.60;3.30;;;;;;;-145.13;100.00;63600.38;5118034;28;20506;-67
2022/01/22 11:41:52;;;;;;;8.60;7.80;;;;;;;-145.13;100.00;63600.38;5116309;28;20230;-67
2022/01/22 11:44:25;;;;;;;6.88;6.28;;;;;;;-145.13;100.00;63600.38;5116894;28;20192;-67
2022/01/22 11:49:21;;;;;;;4.50;4.10;;;;;;;1.77;43.15;94769.63;5093332;27;21072;-68
2022/01/22 11:51:50;;;;;;;3.60;3.20;;;;;;;1.73;42.58;94768.66;5092188;28;20204;-68
2022/01/22 11:54:18;;;;;;;3.63;3.28;;;;;;;1.76;42.50;94775.41;5126316;28;20600;-68
2022/01/22 11:56:51;;;;;;;4.07;2.50;;;;;;;1.68;41.90;94766.84;5091863;28;20560;-68
2022/01/22 11:59:28;;;;;;;2.55;2.35;;;;;;;1.60;42.80;94766.75;5091731;28;20196;-68
2022/01/22 12:02:06;;;;;;;3.80;2.92;;;;;;;1.56;42.61;94758.41;5092584;28;20199;-68
2022/01/22 12:04:50;;;;;;;3.10;2.80;;;;;;;1.53;43.68;94767.16;5091510;28;20196;-68
2022/01/22 12:07:26;;;;;;;3.63;3.33;;;;;;;1.49;42.99;94774.31;5125291;28;20723;-69
2022/01/22 12:10:35;;;;;;;2.90;2.70;;;;;;;1.38;43.11;94768.28;5092106;28;20184;-68
2022/01/22 12:16:13;;;;;;;2.72;2.40;;;;;;;1.31;44.30;94773.31;5091604;28;20193;-68
2022/01/22 12:18:44;;;;;;;2.92;2.72;;;;;;;1.16;44.70;94760.81;5092007;28;20216;-68
2022/01/22 12:21:34;;;;;;;3.03;2.83;;;;;;;1.07;45.42;94762.63;5092177;28;20204;-68
2022/01/22 12:24:02;;;;;;;3.00;2.80;;;;;;;1.08;46.35;94769.66;5091654;28;20203;-68